sensor_id;sensor_type;location;lat;lon;timestamp;pressure;altitude;pressure_sealevel;temperature;humidity
13478;BME280;12598;62.382;17.344;2023-04-27T00:00:53;100114.66;;;19.01;26.21
13478;BME280;12598;62.382;17.344;2023-04-27T00:01:55;100109.31;;;19.01;26.56
13478;BME280;12598;62.382;17.344;2023-04-27T00:02:56;100113.00;;;19.00;26.27
13478;BME280;12598;62.382;17.344;2023-04-27T00:03:59;100112.13;;;19.00;26.61
13478;BME280;12598;62.382;17.344;2023-04-27T00:05:01;100120.84;;;19.02;26.30
13478;BME280;12598;62.382;17.344;2023-04-27T00:06:04;100122.84;;;19.00;26.69
13478;BME280;12598;62.382;17.344;2023-04-27T00:07:06;100122.84;;;19.00;26.46
13478;BME280;12598;62.382;17.344;2023-04-27T00:08:08;100125.53;;;19.00;26.71
13478;BME280;12598;62.382;17.344;2023-04-27T00:09:10;100129.06;;;19.00;26.23
13478;BME280;12598;62.382;17.344;2023-04-27T00:10:12;100122.84;;;19.00;26.33
13478;BME280;12598;62.382;17.344;2023-04-27T00:11:14;100129.06;;;19.00;26.11
13478;BME280;12598;62.382;17.344;2023-04-27T00:12:16;100122.03;;;18.99;26.55
13478;BME280;12598;62.382;17.344;2023-04-27T00:13:18;100131.75;;;19.00;26.70
13478;BME280;12598;62.382;17.344;2023-04-27T00:14:20;100121.19;;;18.99;26.55
13478;BME280;12598;62.382;17.344;2023-04-27T00:15:22;100118.31;;;18.92;26.45
13478;BME280;12598;62.382;17.344;2023-04-27T00:16:24;100129.56;;;18.96;26.31
13478;BME280;12598;62.382;17.344;2023-04-27T00:17:26;100126.53;;;18.99;26.28
13478;BME280;12598;62.382;17.344;2023-04-27T00:18:29;100131.91;;;18.99;26.36
13478;BME280;12598;62.382;17.344;2023-04-27T00:19:31;100130.88;;;19.00;26.25
13478;BME280;12598;62.382;17.344;2023-04-27T00:20:33;100126.53;;;18.99;26.45
13478;BME280;12598;62.382;17.344;2023-04-27T00:21:35;100119.69;;;18.96;26.39
13478;BME280;12598;62.382;17.344;2023-04-27T00:22:38;100124.03;;;18.97;26.62
13478;BME280;12598;62.382;17.344;2023-04-27T00:23:40;100123.19;;;18.97;26.68
13478;BME280;12598;62.382;17.344;2023-04-27T00:24:42;100119.19;;;18.93;26.18
13478;BME280;12598;62.382;17.344;2023-04-27T00:25:43;100130.22;;;18.98;26.20
13478;BME280;12598;62.382;17.344;2023-04-27T00:26:45;100128.56;;;18.97;26.05
13478;BME280;12598;62.382;17.344;2023-04-27T00:27:47;100116.00;;;18.89;26.48
13478;BME280;12598;62.382;17.344;2023-04-27T00:28:49;100133.09;;;18.96;26.17
13478;BME280;12598;62.382;17.344;2023-04-27T00:29:51;100137.59;;;18.96;26.52
13478;BME280;12598;62.382;17.344;2023-04-27T00:30:53;100137.59;;;18.96;26.13
13478;BME280;12598;62.382;17.344;2023-04-27T00:31:55;100131.41;;;18.95;26.39
13478;BME280;12598;62.382;17.344;2023-04-27T00:32:57;100134.25;;;18.94;26.50
13478;BME280;12598;62.382;17.344;2023-04-27T00:33:59;100140.28;;;18.96;26.26
13478;BME280;12598;62.382;17.344;2023-04-27T00:35:01;100134.59;;;18.91;26.40
13478;BME280;12598;62.382;17.344;2023-04-27T00:36:03;100135.91;;;18.95;26.26
13478;BME280;12598;62.382;17.344;2023-04-27T00:37:05;100142.28;;;18.94;26.08
13478;BME280;12598;62.382;17.344;2023-04-27T00:38:06;100135.91;;;18.95;26.55
13478;BME280;12598;62.382;17.344;2023-04-27T00:39:08;100133.25;;;18.95;26.23
13478;BME280;12598;62.382;17.344;2023-04-27T00:40:10;100130.91;;;18.92;26.53
13478;BME280;12598;62.382;17.344;2023-04-27T00:41:12;100134.25;;;18.94;26.45
13478;BME280;12598;62.382;17.344;2023-04-27T00:42:15;100139.59;;;18.94;26.58
13478;BME280;12598;62.382;17.344;2023-04-27T00:43:24;100137.59;;;18.96;26.66
13478;BME280;12598;62.382;17.344;2023-04-27T00:44:26;100135.91;;;18.95;26.21
13478;BME280;12598;62.382;17.344;2023-04-27T00:45:29;100135.91;;;18.95;26.39
13478;BME280;12598;62.382;17.344;2023-04-27T00:46:32;100133.44;;;18.93;26.48
13478;BME280;12598;62.382;17.344;2023-04-27T00:47:35;100128.88;;;18.94;26.32
13478;BME280;12598;62.382;17.344;2023-04-27T00:48:37;100127.22;;;18.93;26.40
13478;BME280;12598;62.382;17.344;2023-04-27T00:49:39;100126.38;;;18.92;26.47
13478;BME280;12598;62.382;17.344;2023-04-27T00:50:41;100133.44;;;18.93;26.77
13478;BME280;12598;62.382;17.344;2023-04-27T00:51:43;100133.44;;;18.93;26.45
13478;BME280;12598;62.382;17.344;2023-04-27T00:52:46;100128.22;;;18.92;26.54
13478;BME280;12598;62.382;17.344;2023-04-27T00:53:51;100120.00;;;18.85;26.68
13478;BME280;12598;62.382;17.344;2023-04-27T00:54:56;100128.22;;;18.92;26.57
13478;BME280;12598;62.382;17.344;2023-04-27T00:55:58;100131.72;;;18.92;26.22
13478;BME280;12598;62.382;17.344;2023-04-27T00:57:00;100120.53;;;18.89;26.63
13478;BME280;12598;62.382;17.344;2023-04-27T00:58:02;100128.22;;;18.92;26.46
13478;BME280;12598;62.382;17.344;2023-04-27T00:59:05;100129.03;;;18.92;26.33
13478;BME280;12598;62.382;17.344;2023-04-27T01:00:07;100128.38;;;18.90;26.35
13478;BME280;12598;62.382;17.344;2023-04-27T01:01:12;100134.41;;;18.92;nan
13478;BME280;12598;62.382;17.344;2023-04-27T01:02:14;100135.41;;;18.91;26.63
13478;BME280;12598;62.382;17.344;2023-04-27T01:03:16;100121.00;;;18.84;26.64
13478;BME280;12598;62.382;17.344;2023-04-27T01:04:19;100136.41;;;18.90;26.29
13478;BME280;12598;62.382;17.344;2023-04-27T01:05:21;100132.91;;;18.90;26.41
13478;BME280;12598;62.382;17.344;2023-04-27T01:06:24;100132.91;;;18.90;26.71
13478;BME280;12598;62.382;17.344;2023-04-27T01:07:28;100135.94;;;18.87;26.56
13478;BME280;12598;62.382;17.344;2023-04-27T01:08:31;100139.09;;;18.90;26.43
13478;BME280;12598;62.382;17.344;2023-04-27T01:09:36;100129.56;;;18.88;26.39
13478;BME280;12598;62.382;17.344;2023-04-27T01:10:37;100142.63;;;18.91;26.25
13478;BME280;12598;62.382;17.344;2023-04-27T01:11:39;100141.94;;;18.89;26.69
13478;BME280;12598;62.382;17.344;2023-04-27T01:12:41;100139.28;;;18.89;26.40
13478;BME280;12598;62.382;17.344;2023-04-27T01:13:43;100124.38;;;18.78;26.27
13478;BME280;12598;62.382;17.344;2023-04-27T01:14:45;100142.97;;;18.88;26.46
13478;BME280;12598;62.382;17.344;2023-04-27T01:15:47;100145.63;;;18.88;26.58
13478;BME280;12598;62.382;17.344;2023-04-27T01:16:50;100140.28;;;18.88;26.66
13478;BME280;12598;62.382;17.344;2023-04-27T01:17:59;100136.75;;;18.87;26.69
13478;BME280;12598;62.382;17.344;2023-04-27T01:19:02;100147.13;;;18.90;26.42
13478;BME280;12598;62.382;17.344;2023-04-27T01:20:05;100148.31;;;18.88;26.20
13478;BME280;12598;62.382;17.344;2023-04-27T01:21:11;100151.66;;;18.90;26.58
13478;BME280;12598;62.382;17.344;2023-04-27T01:22:13;100136.59;;;18.89;26.43
13478;BME280;12598;62.382;17.344;2023-04-27T01:23:15;100151.00;;;18.88;26.62
13478;BME280;12598;62.382;17.344;2023-04-27T01:24:18;100145.63;;;18.88;26.08
13478;BME280;12598;62.382;17.344;2023-04-27T01:25:20;100144.78;;;18.87;26.64
13478;BME280;12598;62.382;17.344;2023-04-27T01:26:22;100149.31;;;18.87;26.67
13478;BME280;12598;62.382;17.344;2023-04-27T01:27:24;100141.44;;;18.85;26.54
13478;BME280;12598;62.382;17.344;2023-04-27T01:28:26;100151.16;;;18.86;26.71
13478;BME280;12598;62.382;17.344;2023-04-27T01:29:28;100147.66;;;18.86;26.60
13478;BME280;12598;62.382;17.344;2023-04-27T01:30:30;100151.34;;;18.85;26.82
13478;BME280;12598;62.382;17.344;2023-04-27T01:31:32;100148.66;;;18.85;26.63
13478;BME280;12598;62.382;17.344;2023-04-27T01:32:36;100147.97;;;18.83;26.45
13478;BME280;12598;62.382;17.344;2023-04-27T01:33:39;100158.38;;;18.86;26.62
13478;BME280;12598;62.382;17.344;2023-04-27T01:34:41;100159.19;;;18.86;26.28
13478;BME280;12598;62.382;17.344;2023-04-27T01:35:42;100152.34;;;18.84;26.29
13478;BME280;12598;62.382;17.344;2023-04-27T01:36:44;100155.84;;;18.84;26.76
13478;BME280;12598;62.382;17.344;2023-04-27T01:37:46;100154.84;;;18.85;26.46
13478;BME280;12598;62.382;17.344;2023-04-27T01:38:51;100153.00;;;18.86;26.91
13478;BME280;12598;62.382;17.344;2023-04-27T01:39:53;100148.66;;;18.85;26.83
13478;BME280;12598;62.382;17.344;2023-04-27T01:40:54;100154.16;;;18.83;26.51
13478;BME280;12598;62.382;17.344;2023-04-27T01:42:02;100148.66;;;18.85;26.75
13478;BME280;12598;62.382;17.344;2023-04-27T01:43:04;100151.34;;;18.85;26.47
13478;BME280;12598;62.382;17.344;2023-04-27T01:44:08;100154.00;;;18.85;26.51
13478;BME280;12598;62.382;17.344;2023-04-27T01:45:10;100148.66;;;18.85;26.25
13478;BME280;12598;62.382;17.344;2023-04-27T01:46:13;100148.66;;;18.85;26.54
13478;BME280;12598;62.382;17.344;2023-04-27T01:47:16;100144.31;;;18.84;26.76
13478;BME280;12598;62.382;17.344;2023-04-27T01:48:18;100144.31;;;18.84;26.38
13478;BME280;12598;62.382;17.344;2023-04-27T01:49:20;100144.31;;;18.84;26.85
13478;BME280;12598;62.382;17.344;2023-04-27T01:50:22;100149.66;;;18.84;26.59
13478;BME280;12598;62.382;17.344;2023-04-27T01:51:24;100142.44;;;18.84;26.79
13478;BME280;12598;62.382;17.344;2023-04-27T01:52:26;100143.44;;;18.83;26.41
13478;BME280;12598;62.382;17.344;2023-04-27T01:53:29;100146.97;;;18.84;26.38
13478;BME280;12598;62.382;17.344;2023-04-27T01:54:31;100139.09;;;18.82;26.54
13478;BME280;12598;62.382;17.344;2023-04-27T01:55:33;100136.41;;;18.82;26.37
13478;BME280;12598;62.382;17.344;2023-04-27T01:56:35;100138.09;;;18.83;26.54
13478;BME280;12598;62.382;17.344;2023-04-27T01:57:37;100139.94;;;18.83;26.50
13478;BME280;12598;62.382;17.344;2023-04-27T01:58:39;100140.94;;;18.82;26.42
13478;BME280;12598;62.382;17.344;2023-04-27T01:59:41;100136.41;;;18.82;26.64
13478;BME280;12598;62.382;17.344;2023-04-27T02:00:43;100137.28;;;18.83;26.47
13478;BME280;12598;62.382;17.344;2023-04-27T02:01:45;100145.31;;;18.83;26.68
13478;BME280;12598;62.382;17.344;2023-04-27T02:02:47;100135.25;;;18.77;26.59
13478;BME280;12598;62.382;17.344;2023-04-27T02:03:52;100140.94;;;18.82;26.51
13478;BME280;12598;62.382;17.344;2023-04-27T02:04:54;100140.94;;;18.82;26.40
13478;BME280;12598;62.382;17.344;2023-04-27T02:05:56;100148.81;;;18.83;26.62
13478;BME280;12598;62.382;17.344;2023-04-27T02:06:58;100142.63;;;18.83;26.82
13478;BME280;12598;62.382;17.344;2023-04-27T02:07:59;100149.81;;;18.82;26.32
13478;BME280;12598;62.382;17.344;2023-04-27T02:09:02;100143.63;;;18.82;26.42
13478;BME280;12598;62.382;17.344;2023-04-27T02:10:04;100148.13;;;18.81;26.51
13478;BME280;12598;62.382;17.344;2023-04-27T02:11:06;100147.31;;;18.81;26.73
13478;BME280;12598;62.382;17.344;2023-04-27T02:12:08;100149.81;;;18.82;26.45
13478;BME280;12598;62.382;17.344;2023-04-27T02:13:10;100146.31;;;18.82;26.49
13478;BME280;12598;62.382;17.344;2023-04-27T02:14:12;100155.34;;;18.81;26.47
13478;BME280;12598;62.382;17.344;2023-04-27T02:15:14;100147.47;;;18.79;26.57
13478;BME280;12598;62.382;17.344;2023-04-27T02:16:17;100143.63;;;18.82;26.58
13478;BME280;12598;62.382;17.344;2023-04-27T02:17:19;100146.31;;;18.82;27.13
13478;BME280;12598;62.382;17.344;2023-04-27T02:18:21;100158.03;;;18.81;26.78
13478;BME280;12598;62.382;17.344;2023-04-27T02:19:23;100149.13;;;18.80;26.74
13478;BME280;12598;62.382;17.344;2023-04-27T02:20:25;100146.66;;;18.79;26.67
13478;BME280;12598;62.382;17.344;2023-04-27T02:21:27;100161.53;;;18.81;26.79
13478;BME280;12598;62.382;17.344;2023-04-27T02:22:30;100151.66;;;18.82;26.36
13478;BME280;12598;62.382;17.344;2023-04-27T02:23:32;100151.66;;;18.82;26.62
13478;BME280;12598;62.382;17.344;2023-04-27T02:24:35;100155.34;;;18.81;26.68
13478;BME280;12598;62.382;17.344;2023-04-27T02:25:37;100150.00;;;18.81;26.62
13478;BME280;12598;62.382;17.344;2023-04-27T02:26:39;100153.69;;;18.80;26.46
13478;BME280;12598;62.382;17.344;2023-04-27T02:27:42;100148.31;;;18.80;26.65
13478;BME280;12598;62.382;17.344;2023-04-27T02:28:45;100151.81;;;18.80;26.58
13478;BME280;12598;62.382;17.344;2023-04-27T02:29:48;100147.31;;;18.81;26.79
13478;BME280;12598;62.382;17.344;2023-04-27T02:30:50;100148.31;;;18.80;26.41
13478;BME280;12598;62.382;17.344;2023-04-27T02:31:52;100140.28;;;18.80;26.62
13478;BME280;12598;62.382;17.344;2023-04-27T02:32:56;100137.59;;;18.80;26.55
13478;BME280;12598;62.382;17.344;2023-04-27T02:33:58;100145.47;;;18.81;26.43
13478;BME280;12598;62.382;17.344;2023-04-27T02:35:00;100154.50;;;18.80;26.39
13478;BME280;12598;62.382;17.344;2023-04-27T02:36:03;100148.31;;;18.80;26.77
13478;BME280;12598;62.382;17.344;2023-04-27T02:37:05;100158.03;;;18.81;26.39
13478;BME280;12598;62.382;17.344;2023-04-27T02:38:07;100141.97;;;18.73;26.49
13478;BME280;12598;62.382;17.344;2023-04-27T02:39:11;100138.59;;;18.71;26.49
13478;BME280;12598;62.382;17.344;2023-04-27T02:40:13;100153.69;;;18.80;26.73
13478;BME280;12598;62.382;17.344;2023-04-27T02:41:15;100152.00;;;18.79;26.57
13478;BME280;12598;62.382;17.344;2023-04-27T02:42:17;100152.00;;;18.79;26.87
13478;BME280;12598;62.382;17.344;2023-04-27T02:43:19;100157.34;;;18.79;26.54
13478;BME280;12598;62.382;17.344;2023-04-27T02:44:21;100158.38;;;18.78;26.54
13478;BME280;12598;62.382;17.344;2023-04-27T02:45:24;100157.34;;;18.79;26.46
13478;BME280;12598;62.382;17.344;2023-04-27T02:46:26;100152.00;;;18.79;26.40
13478;BME280;12598;62.382;17.344;2023-04-27T02:47:28;100153.81;;;18.78;26.89
13478;BME280;12598;62.382;17.344;2023-04-27T02:48:31;100158.38;;;18.78;26.50
13478;BME280;12598;62.382;17.344;2023-04-27T02:49:33;100154.00;;;18.77;26.74
13478;BME280;12598;62.382;17.344;2023-04-27T02:50:42;100153.00;;;18.78;26.84
13478;BME280;12598;62.382;17.344;2023-04-27T02:51:45;100156.34;;;18.80;26.95
13478;BME280;12598;62.382;17.344;2023-04-27T02:52:47;100155.69;;;18.78;26.86
13478;BME280;12598;62.382;17.344;2023-04-27T02:53:51;100158.53;;;18.76;26.62
13478;BME280;12598;62.382;17.344;2023-04-27T02:54:53;100166.22;;;18.79;26.92
13478;BME280;12598;62.382;17.344;2023-04-27T02:55:55;100161.88;;;18.78;26.82
13478;BME280;12598;62.382;17.344;2023-04-27T02:56:59;100158.69;;;18.75;26.46
13478;BME280;12598;62.382;17.344;2023-04-27T02:58:01;100158.84;;;18.73;26.56
13478;BME280;12598;62.382;17.344;2023-04-27T02:59:03;100167.22;;;18.78;26.56
13478;BME280;12598;62.382;17.344;2023-04-27T03:00:06;100165.56;;;18.77;26.85
13478;BME280;12598;62.382;17.344;2023-04-27T03:01:09;100168.06;;;18.79;26.71
13478;BME280;12598;62.382;17.344;2023-04-27T03:02:11;100150.28;;;18.70;26.84
13478;BME280;12598;62.382;17.344;2023-04-27T03:03:13;100166.41;;;18.78;26.83
13478;BME280;12598;62.382;17.344;2023-04-27T03:04:15;100161.03;;;18.78;26.46
13478;BME280;12598;62.382;17.344;2023-04-27T03:05:18;100161.88;;;18.78;26.94
13478;BME280;12598;62.382;17.344;2023-04-27T03:06:20;100171.75;;;18.78;26.57
13478;BME280;12598;62.382;17.344;2023-04-27T03:07:22;100168.06;;;18.79;26.63
13478;BME280;12598;62.382;17.344;2023-04-27T03:08:24;100169.09;;;18.78;26.83
13478;BME280;12598;62.382;17.344;2023-04-27T03:09:26;100171.75;;;18.78;26.60
13478;BME280;12598;62.382;17.344;2023-04-27T03:10:28;100167.22;;;18.78;26.60
13478;BME280;12598;62.382;17.344;2023-04-27T03:11:30;100166.41;;;18.78;26.83
13478;BME280;12598;62.382;17.344;2023-04-27T03:12:32;100171.75;;;18.78;26.91
13478;BME280;12598;62.382;17.344;2023-04-27T03:13:34;100177.13;;;18.78;26.42
13478;BME280;12598;62.382;17.344;2023-04-27T03:14:42;100165.22;;;18.80;26.83
13478;BME280;12598;62.382;17.344;2023-04-27T03:15:44;100168.91;;;18.79;26.89
13478;BME280;12598;62.382;17.344;2023-04-27T03:16:46;100173.44;;;18.79;26.67
13478;BME280;12598;62.382;17.344;2023-04-27T03:17:48;100172.56;;;18.78;26.99
13478;BME280;12598;62.382;17.344;2023-04-27T03:18:50;100177.13;;;18.78;26.63
13478;BME280;12598;62.382;17.344;2023-04-27T03:19:52;100176.13;;;18.79;26.74
13478;BME280;12598;62.382;17.344;2023-04-27T03:21:04;100170.09;;;18.77;26.52
13478;BME280;12598;62.382;17.344;2023-04-27T03:22:06;100182.97;;;18.81;26.72
13478;BME280;12598;62.382;17.344;2023-04-27T03:23:09;100175.94;;;18.80;26.67
13478;BME280;12598;62.382;17.344;2023-04-27T03:24:11;100174.25;;;18.79;26.66
13478;BME280;12598;62.382;17.344;2023-04-27T03:25:13;100183.28;;;18.78;26.64
13478;BME280;12598;62.382;17.344;2023-04-27T03:26:15;100181.63;;;18.77;26.62
13478;BME280;12598;62.382;17.344;2023-04-27T03:27:16;100178.94;;;18.77;26.73
13478;BME280;12598;62.382;17.344;2023-04-27T03:28:18;100178.13;;;18.77;26.75
13478;BME280;12598;62.382;17.344;2023-04-27T03:29:20;100174.44;;;18.78;26.49
13478;BME280;12598;62.382;17.344;2023-04-27T03:30:22;100181.63;;;18.77;27.03
13478;BME280;12598;62.382;17.344;2023-04-27T03:31:24;100183.47;;;18.77;26.37
13478;BME280;12598;62.382;17.344;2023-04-27T03:32:26;100183.47;;;18.77;26.56
13478;BME280;12598;62.382;17.344;2023-04-27T03:33:28;100175.44;;;18.77;26.39
13478;BME280;12598;62.382;17.344;2023-04-27T03:34:30;100180.78;;;18.77;26.40
13478;BME280;12598;62.382;17.344;2023-04-27T03:35:32;100179.94;;;18.76;26.44
13478;BME280;12598;62.382;17.344;2023-04-27T03:36:34;100186.97;;;18.77;26.51
13478;BME280;12598;62.382;17.344;2023-04-27T03:37:36;100182.47;;;18.78;26.73
13478;BME280;12598;62.382;17.344;2023-04-27T03:38:38;100186.16;;;18.77;26.48
13478;BME280;12598;62.382;17.344;2023-04-27T03:39:40;100194.19;;;18.77;26.46
13478;BME280;12598;62.382;17.344;2023-04-27T03:40:43;100191.50;;;18.77;26.69
13478;BME280;12598;62.382;17.344;2023-04-27T03:41:45;100197.69;;;18.77;26.39
13478;BME280;12598;62.382;17.344;2023-04-27T03:42:47;100194.34;;;18.75;26.51
13478;BME280;12598;62.382;17.344;2023-04-27T03:43:49;100199.69;;;18.75;26.54
13478;BME280;12598;62.382;17.344;2023-04-27T03:44:54;100198.69;;;18.76;26.90
13478;BME280;12598;62.382;17.344;2023-04-27T03:45:56;100202.22;;;18.77;26.87
13478;BME280;12598;62.382;17.344;2023-04-27T03:46:58;100208.41;;;18.77;26.22
13478;BME280;12598;62.382;17.344;2023-04-27T03:48:02;100204.91;;;18.77;26.32
13478;BME280;12598;62.382;17.344;2023-04-27T03:49:05;100175.06;;;18.56;26.59
13478;BME280;12598;62.382;17.344;2023-04-27T03:50:07;100204.22;;;18.75;26.82
13478;BME280;12598;62.382;17.344;2023-04-27T03:51:09;100195.53;;;18.73;26.65
13478;BME280;12598;62.382;17.344;2023-04-27T03:52:12;100204.22;;;18.75;26.84
13478;BME280;12598;62.382;17.344;2023-04-27T03:53:14;100202.56;;;18.74;26.49
13478;BME280;12598;62.382;17.344;2023-04-27T03:54:16;100206.91;;;18.75;26.68
13478;BME280;12598;62.382;17.344;2023-04-27T03:55:19;100208.72;;;18.74;26.74
13478;BME280;12598;62.382;17.344;2023-04-27T03:56:22;100215.75;;;18.75;26.93
13478;BME280;12598;62.382;17.344;2023-04-27T03:57:24;100207.06;;;18.73;26.71
13478;BME280;12598;62.382;17.344;2023-04-27T03:58:27;100205.22;;;18.74;26.49
13478;BME280;12598;62.382;17.344;2023-04-27T03:59:45;100212.59;;;18.80;26.56
13478;BME280;12598;62.382;17.344;2023-04-27T04:00:46;100210.94;;;18.79;26.58
13478;BME280;12598;62.382;17.344;2023-04-27T04:01:48;100212.25;;;18.75;26.77
13478;BME280;12598;62.382;17.344;2023-04-27T04:02:50;100214.94;;;18.75;26.51
13478;BME280;12598;62.382;17.344;2023-04-27T04:03:53;100207.91;;;18.74;26.86
13478;BME280;12598;62.382;17.344;2023-04-27T04:04:55;100211.59;;;18.73;26.63
13478;BME280;12598;62.382;17.344;2023-04-27T04:05:57;100214.28;;;18.73;26.38
13478;BME280;12598;62.382;17.344;2023-04-27T04:06:59;100216.09;;;18.72;26.66
13478;BME280;12598;62.382;17.344;2023-04-27T04:08:01;100217.25;;;18.70;26.63
13478;BME280;12598;62.382;17.344;2023-04-27T04:09:03;100216.09;;;18.72;26.76
13478;BME280;12598;62.382;17.344;2023-04-27T04:10:07;100219.78;;;18.71;26.90
13478;BME280;12598;62.382;17.344;2023-04-27T04:11:10;100218.78;;;18.72;26.81
13478;BME280;12598;62.382;17.344;2023-04-27T04:12:12;100218.91;;;18.71;26.41
13478;BME280;12598;62.382;17.344;2023-04-27T04:13:14;100217.94;;;18.72;26.42
13478;BME280;12598;62.382;17.344;2023-04-27T04:14:16;100216.25;;;18.71;26.72
13478;BME280;12598;62.382;17.344;2023-04-27T04:15:18;100216.25;;;18.71;26.84
13478;BME280;12598;62.382;17.344;2023-04-27T04:16:22;100209.06;;;18.71;26.79
13478;BME280;12598;62.382;17.344;2023-04-27T04:17:26;100217.94;;;18.72;26.53
13478;BME280;12598;62.382;17.344;2023-04-27T04:18:28;100208.88;;;18.65;26.68
13478;BME280;12598;62.382;17.344;2023-04-27T04:19:30;100216.44;;;18.69;26.69
13478;BME280;12598;62.382;17.344;2023-04-27T04:20:33;100218.25;;;18.69;26.94
13478;BME280;12598;62.382;17.344;2023-04-27T04:21:36;100217.25;;;18.70;26.39
13478;BME280;12598;62.382;17.344;2023-04-27T04:22:38;100213.41;;;18.64;26.87
13478;BME280;12598;62.382;17.344;2023-04-27T04:23:40;100217.25;;;18.70;26.68
13478;BME280;12598;62.382;17.344;2023-04-27T04:24:42;100224.47;;;18.69;26.62
13478;BME280;12598;62.382;17.344;2023-04-27T04:25:44;100222.59;;;18.70;26.35
13478;BME280;12598;62.382;17.344;2023-04-27T04:26:48;100229.81;;;18.69;26.62
13478;BME280;12598;62.382;17.344;2023-04-27T04:27:50;100231.63;;;18.69;26.80
13478;BME280;12598;62.382;17.344;2023-04-27T04:28:52;100223.59;;;18.69;26.75
13478;BME280;12598;62.382;17.344;2023-04-27T04:29:54;100227.13;;;18.69;26.49
13478;BME280;12598;62.382;17.344;2023-04-27T04:30:56;100221.94;;;18.68;26.48
13478;BME280;12598;62.382;17.344;2023-04-27T04:31:59;100216.56;;;18.68;26.79
13478;BME280;12598;62.382;17.344;2023-04-27T04:33:04;100223.59;;;18.69;26.40
13478;BME280;12598;62.382;17.344;2023-04-27T04:34:06;100220.94;;;18.69;26.45
13478;BME280;12598;62.382;17.344;2023-04-27T04:35:09;100214.91;;;18.67;26.32
13478;BME280;12598;62.382;17.344;2023-04-27T04:36:11;100226.28;;;18.69;26.28
13478;BME280;12598;62.382;17.344;2023-04-27T04:37:13;100232.66;;;18.68;26.58
13478;BME280;12598;62.382;17.344;2023-04-27T04:38:15;100229.16;;;18.67;26.80
13478;BME280;12598;62.382;17.344;2023-04-27T04:39:18;100231.81;;;18.67;26.46
13478;BME280;12598;62.382;17.344;2023-04-27T04:40:23;100232.66;;;18.68;26.74
13478;BME280;12598;62.382;17.344;2023-04-27T04:41:25;100233.66;;;18.67;26.57
13478;BME280;12598;62.382;17.344;2023-04-27T04:42:27;100236.31;;;18.67;26.31
13478;BME280;12598;62.382;17.344;2023-04-27T04:43:29;100234.66;;;18.66;26.42
13478;BME280;12598;62.382;17.344;2023-04-27T04:44:31;100220.56;;;18.56;26.46
13478;BME280;12598;62.382;17.344;2023-04-27T04:45:33;100239.19;;;18.65;26.36
13478;BME280;12598;62.382;17.344;2023-04-27T04:46:34;100234.66;;;18.66;26.74
13478;BME280;12598;62.382;17.344;2023-04-27T04:47:38;100241.00;;;18.65;nan
13478;BME280;12598;62.382;17.344;2023-04-27T04:48:40;100246.38;;;18.65;26.71
13478;BME280;12598;62.382;17.344;2023-04-27T04:49:42;100238.31;;;18.65;26.61
13478;BME280;12598;62.382;17.344;2023-04-27T04:50:44;100247.22;;;18.65;26.43
13478;BME280;12598;62.382;17.344;2023-04-27T04:51:46;100241.00;;;18.65;26.51
13478;BME280;12598;62.382;17.344;2023-04-27T04:52:48;100250.91;;;18.64;26.48
13478;BME280;12598;62.382;17.344;2023-04-27T04:53:50;100242.00;;;18.64;26.32
13478;BME280;12598;62.382;17.344;2023-04-27T04:54:52;100244.00;;;18.62;26.50
13478;BME280;12598;62.382;17.344;2023-04-27T04:55:55;100231.28;;;18.56;26.52
13478;BME280;12598;62.382;17.344;2023-04-27T04:56:56;100251.91;;;18.63;26.61
13478;BME280;12598;62.382;17.344;2023-04-27T04:57:59;100250.03;;;18.64;26.47
13478;BME280;12598;62.382;17.344;2023-04-27T04:59:02;100245.53;;;18.64;26.80
13478;BME280;12598;62.382;17.344;2023-04-27T05:00:06;100253.72;;;18.63;26.44
13478;BME280;12598;62.382;17.344;2023-04-27T05:01:13;100249.91;;;18.65;26.68
13478;BME280;12598;62.382;17.344;2023-04-27T05:02:15;100251.91;;;18.63;26.77
13478;BME280;12598;62.382;17.344;2023-04-27T05:03:17;100249.38;;;18.62;26.43
13478;BME280;12598;62.382;17.344;2023-04-27T05:04:19;100249.38;;;18.62;26.48
13478;BME280;12598;62.382;17.344;2023-04-27T05:05:22;100245.19;;;18.59;26.62
13478;BME280;12598;62.382;17.344;2023-04-27T05:06:23;100252.03;;;18.62;26.52
13478;BME280;12598;62.382;17.344;2023-04-27T05:07:25;100252.91;;;18.62;26.52
13478;BME280;12598;62.382;17.344;2023-04-27T05:08:27;100256.41;;;18.63;26.48
13478;BME280;12598;62.382;17.344;2023-04-27T05:09:29;100258.25;;;18.62;26.67
13478;BME280;12598;62.382;17.344;2023-04-27T05:10:31;100255.41;;;18.64;26.48
13478;BME280;12598;62.382;17.344;2023-04-27T05:11:33;100240.00;;;18.58;26.71
13478;BME280;12598;62.382;17.344;2023-04-27T05:12:35;100262.44;;;18.65;26.61
13478;BME280;12598;62.382;17.344;2023-04-27T05:13:36;100256.75;;;18.68;26.88
13478;BME280;12598;62.382;17.344;2023-04-27T05:14:41;100261.78;;;18.71;26.61
13478;BME280;12598;62.382;17.344;2023-04-27T05:15:44;100256.25;;;18.72;26.60
13478;BME280;12598;62.382;17.344;2023-04-27T05:16:46;100256.94;;;18.74;26.68
13478;BME280;12598;62.382;17.344;2023-04-27T05:17:49;100261.97;;;18.77;26.43
13478;BME280;12598;62.382;17.344;2023-04-27T05:18:51;100261.81;;;18.79;26.22
13478;BME280;12598;62.382;17.344;2023-04-27T05:19:55;100259.63;;;18.82;26.29
13478;BME280;12598;62.382;17.344;2023-04-27T05:20:57;100259.31;;;18.85;26.28
13478;BME280;12598;62.382;17.344;2023-04-27T05:21:58;100260.81;;;18.88;26.53
13478;BME280;12598;62.382;17.344;2023-04-27T05:23:00;100262.16;;;18.92;26.43